sensor_id;sensor_type;location;lat;lon;timestamp;P1;durP1;ratioP1;P2;durP2;ratioP2
24547;SDS011;12713;51.624;4.924;2023-02-20T00:01:14;21.77;;;13.45;;
24547;SDS011;12713;51.624;4.924;2023-02-20T00:03:41;23.10;;;14.07;;
24547;SDS011;12713;51.624;4.924;2023-02-20T00:06:07;22.75;;;14.38;;
24547;SDS011;12713;51.624;4.924;2023-02-20T00:08:33;26.00;;;14.48;;
24547;SDS011;12713;51.624;4.924;2023-02-20T00:10:59;20.58;;;13.48;;
24547;SDS011;12713;51.624;4.924;2023-02-20T00:13:25;22.08;;;13.35;;
24547;SDS011;12713;51.624;4.924;2023-02-20T00:15:51;20.08;;;13.90;;
24547;SDS011;12713;51.624;4.924;2023-02-20T00:18:17;26.33;;;14.07;;
24547;SDS011;12713;51.624;4.924;2023-02-20T00:20:43;22.20;;;13.73;;
24547;SDS011;12713;51.624;4.924;2023-02-20T00:23:09;24.17;;;13.20;;
24547;SDS011;12713;51.624;4.924;2023-02-20T00:25:35;26.52;;;14.27;;
24547;SDS011;12713;51.624;4.924;2023-02-20T00:28:01;21.58;;;14.23;;
24547;SDS011;12713;51.624;4.924;2023-02-20T00:30:27;26.48;;;14.38;;
24547;SDS011;12713;51.624;4.924;2023-02-20T00:32:54;29.95;;;14.70;;
24547;SDS011;12713;51.624;4.924;2023-02-20T00:35:20;24.55;;;13.73;;
24547;SDS011;12713;51.624;4.924;2023-02-20T00:37:47;22.10;;;13.63;;
24547;SDS011;12713;51.624;4.924;2023-02-20T00:40:14;25.63;;;13.52;;
24547;SDS011;12713;51.624;4.924;2023-02-20T00:42:40;24.95;;;13.88;;
24547;SDS011;12713;51.624;4.924;2023-02-20T00:45:06;25.15;;;14.65;;
24547;SDS011;12713;51.624;4.924;2023-02-20T00:47:34;25.48;;;15.70;;
24547;SDS011;12713;51.624;4.924;2023-02-20T00:50:00;24.95;;;13.90;;
24547;SDS011;12713;51.624;4.924;2023-02-20T00:52:26;25.42;;;14.63;;
24547;SDS011;12713;51.624;4.924;2023-02-20T00:54:52;26.70;;;14.93;;
24547;SDS011;12713;51.624;4.924;2023-02-20T00:57:18;31.50;;;15.05;;
24547;SDS011;12713;51.624;4.924;2023-02-20T00:59:44;31.05;;;14.55;;
24547;SDS011;12713;51.624;4.924;2023-02-20T01:02:10;26.13;;;13.85;;
24547;SDS011;12713;51.624;4.924;2023-02-20T01:04:36;23.58;;;14.00;;
24547;SDS011;12713;51.624;4.924;2023-02-20T01:07:02;27.92;;;15.45;;
24547;SDS011;12713;51.624;4.924;2023-02-20T01:09:28;25.02;;;13.75;;
24547;SDS011;12713;51.624;4.924;2023-02-20T01:11:54;22.35;;;14.05;;
24547;SDS011;12713;51.624;4.924;2023-02-20T01:14:20;27.17;;;14.65;;
24547;SDS011;12713;51.624;4.924;2023-02-20T01:19:45;30.10;;;15.57;;
24547;SDS011;12713;51.624;4.924;2023-02-20T01:22:11;26.15;;;13.52;;
24547;SDS011;12713;51.624;4.924;2023-02-20T01:24:37;28.17;;;14.68;;
24547;SDS011;12713;51.624;4.924;2023-02-20T01:27:03;31.88;;;15.23;;
24547;SDS011;12713;51.624;4.924;2023-02-20T01:29:29;24.00;;;14.80;;
24547;SDS011;12713;51.624;4.924;2023-02-20T01:31:55;29.80;;;14.90;;
24547;SDS011;12713;51.624;4.924;2023-02-20T01:34:21;27.92;;;15.75;;
24547;SDS011;12713;51.624;4.924;2023-02-20T01:36:48;29.33;;;17.50;;
24547;SDS011;12713;51.624;4.924;2023-02-20T01:39:18;27.13;;;14.48;;
24547;SDS011;12713;51.624;4.924;2023-02-20T01:41:46;30.08;;;14.32;;
24547;SDS011;12713;51.624;4.924;2023-02-20T01:44:32;34.13;;;17.08;;
24547;SDS011;12713;51.624;4.924;2023-02-20T01:46:59;34.67;;;15.88;;
24547;SDS011;12713;51.624;4.924;2023-02-20T01:51:59;33.53;;;16.95;;
24547;SDS011;12713;51.624;4.924;2023-02-20T01:54:27;38.13;;;17.80;;
24547;SDS011;12713;51.624;4.924;2023-02-20T01:56:55;31.20;;;16.60;;
24547;SDS011;12713;51.624;4.924;2023-02-20T01:59:22;34.53;;;17.50;;
24547;SDS011;12713;51.624;4.924;2023-02-20T02:01:49;32.50;;;17.63;;
24547;SDS011;12713;51.624;4.924;2023-02-20T02:04:16;33.88;;;18.45;;
24547;SDS011;12713;51.624;4.924;2023-02-20T02:06:43;29.60;;;17.73;;
24547;SDS011;12713;51.624;4.924;2023-02-20T02:09:17;34.40;;;18.25;;
24547;SDS011;12713;51.624;4.924;2023-02-20T02:11:45;32.60;;;18.08;;
24547;SDS011;12713;51.624;4.924;2023-02-20T02:14:11;34.50;;;19.33;;
24547;SDS011;12713;51.624;4.924;2023-02-20T02:16:43;38.63;;;18.90;;
24547;SDS011;12713;51.624;4.924;2023-02-20T02:24:26;41.13;;;20.95;;
24547;SDS011;12713;51.624;4.924;2023-02-20T02:29:52;41.35;;;21.17;;
24547;SDS011;12713;51.624;4.924;2023-02-20T02:35:10;50.03;;;24.08;;
24547;SDS011;12713;51.624;4.924;2023-02-20T02:37:49;45.80;;;25.45;;
24547;SDS011;12713;51.624;4.924;2023-02-20T02:40:25;45.15;;;23.00;;
24547;SDS011;12713;51.624;4.924;2023-02-20T02:47:49;53.33;;;26.80;;
24547;SDS011;12713;51.624;4.924;2023-02-20T02:50:17;61.47;;;27.13;;
24547;SDS011;12713;51.624;4.924;2023-02-20T02:52:44;60.15;;;28.48;;
24547;SDS011;12713;51.624;4.924;2023-02-20T02:55:14;48.80;;;27.45;;
24547;SDS011;12713;51.624;4.924;2023-02-20T02:57:41;58.30;;;27.85;;
24547;SDS011;12713;51.624;4.924;2023-02-20T03:00:14;59.75;;;28.98;;
24547;SDS011;12713;51.624;4.924;2023-02-20T03:03:03;52.60;;;29.15;;
24547;SDS011;12713;51.624;4.924;2023-02-20T03:05:33;67.18;;;31.00;;
24547;SDS011;12713;51.624;4.924;2023-02-20T03:08:18;66.88;;;31.00;;
24547;SDS011;12713;51.624;4.924;2023-02-20T03:10:55;65.45;;;31.45;;
24547;SDS011;12713;51.624;4.924;2023-02-20T03:13:22;65.47;;;33.03;;
24547;SDS011;12713;51.624;4.924;2023-02-20T03:16:07;63.05;;;32.35;;
24547;SDS011;12713;51.624;4.924;2023-02-20T03:18:35;62.97;;;31.50;;
24547;SDS011;12713;51.624;4.924;2023-02-20T03:21:11;55.00;;;30.83;;
24547;SDS011;12713;51.624;4.924;2023-02-20T03:23:39;67.60;;;32.40;;
24547;SDS011;12713;51.624;4.924;2023-02-20T03:26:07;57.05;;;30.52;;
24547;SDS011;12713;51.624;4.924;2023-02-20T03:28:35;70.15;;;32.67;;
24547;SDS011;12713;51.624;4.924;2023-02-20T03:31:05;63.05;;;31.98;;
24547;SDS011;12713;51.624;4.924;2023-02-20T03:36:25;65.43;;;31.90;;
24547;SDS011;12713;51.624;4.924;2023-02-20T03:39:13;64.25;;;29.65;;
24547;SDS011;12713;51.624;4.924;2023-02-20T03:41:59;63.78;;;29.92;;
24547;SDS011;12713;51.624;4.924;2023-02-20T03:44:44;55.22;;;28.17;;
24547;SDS011;12713;51.624;4.924;2023-02-20T03:47:12;60.15;;;30.83;;
24547;SDS011;12713;51.624;4.924;2023-02-20T03:49:40;62.75;;;29.40;;
24547;SDS011;12713;51.624;4.924;2023-02-20T03:52:07;53.80;;;29.85;;
24547;SDS011;12713;51.624;4.924;2023-02-20T03:54:34;60.58;;;31.33;;
24547;SDS011;12713;51.624;4.924;2023-02-20T03:57:11;67.93;;;31.23;;
24547;SDS011;12713;51.624;4.924;2023-02-20T03:59:40;59.50;;;30.20;;
24547;SDS011;12713;51.624;4.924;2023-02-20T04:02:08;62.40;;;29.50;;
24547;SDS011;12713;51.624;4.924;2023-02-20T04:04:40;58.85;;;30.08;;
24547;SDS011;12713;51.624;4.924;2023-02-20T04:07:09;63.65;;;32.05;;
24547;SDS011;12713;51.624;4.924;2023-02-20T04:09:37;57.58;;;29.45;;
24547;SDS011;12713;51.624;4.924;2023-02-20T04:14:37;55.03;;;31.13;;
24547;SDS011;12713;51.624;4.924;2023-02-20T04:17:05;64.07;;;31.80;;
24547;SDS011;12713;51.624;4.924;2023-02-20T04:19:31;60.67;;;29.98;;
24547;SDS011;12713;51.624;4.924;2023-02-20T04:21:58;54.28;;;29.27;;
24547;SDS011;12713;51.624;4.924;2023-02-20T04:26:52;56.47;;;29.02;;
24547;SDS011;12713;51.624;4.924;2023-02-20T04:29:18;53.83;;;27.65;;
24547;SDS011;12713;51.624;4.924;2023-02-20T04:31:44;49.97;;;26.35;;
24547;SDS011;12713;51.624;4.924;2023-02-20T04:34:10;58.05;;;27.48;;
24547;SDS011;12713;51.624;4.924;2023-02-20T04:36:37;50.55;;;25.73;;
24547;SDS011;12713;51.624;4.924;2023-02-20T04:39:03;51.83;;;25.58;;
24547;SDS011;12713;51.624;4.924;2023-02-20T04:41:29;41.60;;;24.17;;
24547;SDS011;12713;51.624;4.924;2023-02-20T04:43:55;49.92;;;24.30;;
24547;SDS011;12713;51.624;4.924;2023-02-20T04:46:39;41.90;;;23.95;;
24547;SDS011;12713;51.624;4.924;2023-02-20T04:49:05;42.92;;;24.50;;
24547;SDS011;12713;51.624;4.924;2023-02-20T04:51:31;45.45;;;24.50;;
24547;SDS011;12713;51.624;4.924;2023-02-20T04:53:57;39.63;;;22.25;;
24547;SDS011;12713;51.624;4.924;2023-02-20T04:56:23;47.58;;;23.65;;
24547;SDS011;12713;51.624;4.924;2023-02-20T04:58:49;49.88;;;24.77;;
24547;SDS011;12713;51.624;4.924;2023-02-20T05:01:16;53.88;;;23.65;;
24547;SDS011;12713;51.624;4.924;2023-02-20T05:03:42;46.08;;;22.45;;
24547;SDS011;12713;51.624;4.924;2023-02-20T05:06:08;47.03;;;23.70;;
24547;SDS011;12713;51.624;4.924;2023-02-20T05:08:34;44.25;;;23.65;;
24547;SDS011;12713;51.624;4.924;2023-02-20T05:11:00;44.70;;;23.20;;
24547;SDS011;12713;51.624;4.924;2023-02-20T05:13:26;44.72;;;23.67;;
24547;SDS011;12713;51.624;4.924;2023-02-20T05:15:51;41.25;;;20.58;;
24547;SDS011;12713;51.624;4.924;2023-02-20T05:18:27;43.70;;;22.30;;
24547;SDS011;12713;51.624;4.924;2023-02-20T05:20:53;43.28;;;21.30;;
24547;SDS011;12713;51.624;4.924;2023-02-20T05:23:38;42.63;;;22.30;;
24547;SDS011;12713;51.624;4.924;2023-02-20T05:26:11;42.95;;;21.08;;
24547;SDS011;12713;51.624;4.924;2023-02-20T05:28:37;36.97;;;20.08;;
24547;SDS011;12713;51.624;4.924;2023-02-20T05:31:06;41.55;;;22.13;;
24547;SDS011;12713;51.624;4.924;2023-02-20T05:33:32;43.58;;;20.95;;
24547;SDS011;12713;51.624;4.924;2023-02-20T05:35:59;41.22;;;21.08;;
24547;SDS011;12713;51.624;4.924;2023-02-20T05:38:27;48.55;;;19.67;;
24547;SDS011;12713;51.624;4.924;2023-02-20T05:40:53;41.10;;;21.30;;
24547;SDS011;12713;51.624;4.924;2023-02-20T05:43:19;43.42;;;20.73;;
24547;SDS011;12713;51.624;4.924;2023-02-20T05:45:46;40.42;;;20.92;;
24547;SDS011;12713;51.624;4.924;2023-02-20T05:48:12;36.88;;;20.33;;
24547;SDS011;12713;51.624;4.924;2023-02-20T05:50:38;46.15;;;20.67;;
24547;SDS011;12713;51.624;4.924;2023-02-20T05:53:05;40.60;;;21.30;;
24547;SDS011;12713;51.624;4.924;2023-02-20T05:55:31;46.03;;;22.02;;
24547;SDS011;12713;51.624;4.924;2023-02-20T05:57:57;39.65;;;22.48;;
24547;SDS011;12713;51.624;4.924;2023-02-20T06:00:23;40.90;;;20.17;;
24547;SDS011;12713;51.624;4.924;2023-02-20T06:02:49;39.22;;;19.55;;
24547;SDS011;12713;51.624;4.924;2023-02-20T06:05:15;39.97;;;20.35;;
24547;SDS011;12713;51.624;4.924;2023-02-20T06:07:42;41.05;;;19.67;;
24547;SDS011;12713;51.624;4.924;2023-02-20T06:10:08;34.97;;;18.67;;
24547;SDS011;12713;51.624;4.924;2023-02-20T06:12:34;36.00;;;19.23;;
24547;SDS011;12713;51.624;4.924;2023-02-20T06:15:00;40.92;;;21.27;;
24547;SDS011;12713;51.624;4.924;2023-02-20T06:17:26;40.22;;;20.70;;
24547;SDS011;12713;51.624;4.924;2023-02-20T06:19:53;38.65;;;19.80;;
24547;SDS011;12713;51.624;4.924;2023-02-20T06:22:19;37.33;;;20.52;;
24547;SDS011;12713;51.624;4.924;2023-02-20T06:24:46;42.80;;;20.45;;
24547;SDS011;12713;51.624;4.924;2023-02-20T06:27:13;43.63;;;20.88;;
24547;SDS011;12713;51.624;4.924;2023-02-20T06:29:39;41.80;;;22.00;;
24547;SDS011;12713;51.624;4.924;2023-02-20T06:32:05;39.53;;;21.15;;
24547;SDS011;12713;51.624;4.924;2023-02-20T06:34:31;41.47;;;22.15;;
24547;SDS011;12713;51.624;4.924;2023-02-20T06:37:01;41.53;;;20.80;;
24547;SDS011;12713;51.624;4.924;2023-02-20T06:39:28;50.47;;;22.38;;
24547;SDS011;12713;51.624;4.924;2023-02-20T06:41:54;39.58;;;21.77;;
24547;SDS011;12713;51.624;4.924;2023-02-20T06:44:20;40.70;;;22.30;;
24547;SDS011;12713;51.624;4.924;2023-02-20T06:46:46;37.63;;;21.67;;
24547;SDS011;12713;51.624;4.924;2023-02-20T06:49:12;43.65;;;22.45;;
24547;SDS011;12713;51.624;4.924;2023-02-20T06:51:39;47.10;;;24.35;;
24547;SDS011;12713;51.624;4.924;2023-02-20T06:54:06;40.08;;;20.50;;
24547;SDS011;12713;51.624;4.924;2023-02-20T06:56:32;39.63;;;23.02;;
24547;SDS011;12713;51.624;4.924;2023-02-20T06:58:59;39.55;;;21.80;;
24547;SDS011;12713;51.624;4.924;2023-02-20T07:01:26;44.40;;;22.35;;
24547;SDS011;12713;51.624;4.924;2023-02-20T07:03:53;41.20;;;23.73;;
24547;SDS011;12713;51.624;4.924;2023-02-20T07:06:20;45.58;;;22.80;;
24547;SDS011;12713;51.624;4.924;2023-02-20T07:08:48;45.25;;;23.00;;
24547;SDS011;12713;51.624;4.924;2023-02-20T07:11:17;49.08;;;23.33;;
24547;SDS011;12713;51.624;4.924;2023-02-20T07:13:43;41.17;;;23.38;;
24547;SDS011;12713;51.624;4.924;2023-02-20T07:16:10;45.92;;;24.30;;
24547;SDS011;12713;51.624;4.924;2023-02-20T07:18:35;40.50;;;20.88;;
24547;SDS011;12713;51.624;4.924;2023-02-20T07:21:02;44.95;;;22.98;;
24547;SDS011;12713;51.624;4.924;2023-02-20T07:23:28;41.20;;;22.63;;
24547;SDS011;12713;51.624;4.924;2023-02-20T07:25:54;46.70;;;24.27;;
24547;SDS011;12713;51.624;4.924;2023-02-20T07:28:20;47.03;;;23.27;;
24547;SDS011;12713;51.624;4.924;2023-02-20T07:30:46;40.30;;;22.27;;
24547;SDS011;12713;51.624;4.924;2023-02-20T07:33:13;51.30;;;23.80;;
24547;SDS011;12713;51.624;4.924;2023-02-20T07:35:39;42.53;;;21.75;;
24547;SDS011;12713;51.624;4.924;2023-02-20T07:38:05;45.72;;;21.88;;
24547;SDS011;12713;51.624;4.924;2023-02-20T07:40:31;38.42;;;20.63;;
24547;SDS011;12713;51.624;4.924;2023-02-20T07:42:57;42.40;;;19.90;;
24547;SDS011;12713;51.624;4.924;2023-02-20T07:45:23;38.35;;;20.05;;
24547;SDS011;12713;51.624;4.924;2023-02-20T07:47:49;43.70;;;19.98;;
24547;SDS011;12713;51.624;4.924;2023-02-20T07:50:16;41.80;;;20.70;;
24547;SDS011;12713;51.624;4.924;2023-02-20T07:52:42;42.78;;;19.33;;
24547;SDS011;12713;51.624;4.924;2023-02-20T07:55:08;40.40;;;19.77;;
24547;SDS011;12713;51.624;4.924;2023-02-20T07:57:35;38.00;;;19.90;;
24547;SDS011;12713;51.624;4.924;2023-02-20T08:00:02;44.33;;;20.20;;
24547;SDS011;12713;51.624;4.924;2023-02-20T08:02:28;38.25;;;19.80;;
24547;SDS011;12713;51.624;4.924;2023-02-20T08:04:54;34.47;;;20.90;;
24547;SDS011;12713;51.624;4.924;2023-02-20T08:07:20;38.47;;;18.65;;
24547;SDS011;12713;51.624;4.924;2023-02-20T08:09:46;33.20;;;17.80;;
24547;SDS011;12713;51.624;4.924;2023-02-20T08:12:12;40.13;;;20.40;;
24547;SDS011;12713;51.624;4.924;2023-02-20T08:14:38;35.88;;;18.90;;
24547;SDS011;12713;51.624;4.924;2023-02-20T08:17:04;41.67;;;19.80;;
24547;SDS011;12713;51.624;4.924;2023-02-20T08:19:30;39.55;;;19.67;;
24547;SDS011;12713;51.624;4.924;2023-02-20T08:21:56;35.65;;;19.02;;
24547;SDS011;12713;51.624;4.924;2023-02-20T08:24:22;38.55;;;20.13;;
24547;SDS011;12713;51.624;4.924;2023-02-20T08:26:51;44.85;;;21.08;;
24547;SDS011;12713;51.624;4.924;2023-02-20T08:29:17;43.33;;;22.05;;
24547;SDS011;12713;51.624;4.924;2023-02-20T08:31:43;41.95;;;21.23;;
24547;SDS011;12713;51.624;4.924;2023-02-20T08:34:09;38.40;;;20.58;;
24547;SDS011;12713;51.624;4.924;2023-02-20T08:36:35;39.67;;;21.02;;
24547;SDS011;12713;51.624;4.924;2023-02-20T08:39:02;49.15;;;22.30;;
24547;SDS011;12713;51.624;4.924;2023-02-20T08:41:28;43.47;;;23.08;;
24547;SDS011;12713;51.624;4.924;2023-02-20T08:43:54;44.00;;;22.58;;
24547;SDS011;12713;51.624;4.924;2023-02-20T08:46:21;44.95;;;23.42;;
24547;SDS011;12713;51.624;4.924;2023-02-20T08:48:47;41.03;;;21.40;;
24547;SDS011;12713;51.624;4.924;2023-02-20T08:51:16;43.20;;;21.50;;
24547;SDS011;12713;51.624;4.924;2023-02-20T08:53:43;43.45;;;21.02;;
24547;SDS011;12713;51.624;4.924;2023-02-20T08:56:09;35.53;;;19.80;;
24547;SDS011;12713;51.624;4.924;2023-02-20T08:58:37;35.35;;;19.50;;
24547;SDS011;12713;51.624;4.924;2023-02-20T09:01:03;42.78;;;20.30;;
24547;SDS011;12713;51.624;4.924;2023-02-20T09:03:29;35.30;;;20.63;;
24547;SDS011;12713;51.624;4.924;2023-02-20T09:05:55;45.85;;;22.73;;
24547;SDS011;12713;51.624;4.924;2023-02-20T09:08:21;39.25;;;21.35;;
24547;SDS011;12713;51.624;4.924;2023-02-20T09:10:47;34.05;;;20.05;;
24547;SDS011;12713;51.624;4.924;2023-02-20T09:13:13;37.83;;;19.98;;
24547;SDS011;12713;51.624;4.924;2023-02-20T09:15:39;36.38;;;18.88;;
24547;SDS011;12713;51.624;4.924;2023-02-20T09:18:06;29.55;;;18.67;;
24547;SDS011;12713;51.624;4.924;2023-02-20T09:20:34;36.20;;;19.65;;
24547;SDS011;12713;51.624;4.924;2023-02-20T09:23:01;40.75;;;18.67;;
24547;SDS011;12713;51.624;4.924;2023-02-20T09:25:27;31.55;;;17.88;;
24547;SDS011;12713;51.624;4.924;2023-02-20T09:27:53;38.00;;;18.80;;
24547;SDS011;12713;51.624;4.924;2023-02-20T09:30:20;33.20;;;18.33;;
24547;SDS011;12713;51.624;4.924;2023-02-20T09:32:46;36.50;;;18.30;;
24547;SDS011;12713;51.624;4.924;2023-02-20T09:35:17;29.67;;;17.40;;
24547;SDS011;12713;51.624;4.924;2023-02-20T09:37:43;36.17;;;19.35;;
24547;SDS011;12713;51.624;4.924;2023-02-20T09:40:10;32.55;;;17.95;;
24547;SDS011;12713;51.624;4.924;2023-02-20T09:42:40;34.63;;;17.83;;
24547;SDS011;12713;51.624;4.924;2023-02-20T09:45:18;33.60;;;18.52;;
24547;SDS011;12713;51.624;4.924;2023-02-20T09:52:57;34.70;;;18.15;;
24547;SDS011;12713;51.624;4.924;2023-02-20T09:55:25;33.17;;;17.00;;
24547;SDS011;12713;51.624;4.924;2023-02-20T09:57:55;37.78;;;18.85;;
24547;SDS011;12713;51.624;4.924;2023-02-20T10:00:32;36.40;;;18.42;;
24547;SDS011;12713;51.624;4.924;2023-02-20T10:05:45;30.00;;;17.52;;
24547;SDS011;12713;51.624;4.924;2023-02-20T10:08:13;34.55;;;18.70;;
24547;SDS011;12713;51.624;4.924;2023-02-20T10:10:41;34.05;;;17.75;;
24547;SDS011;12713;51.624;4.924;2023-02-20T10:18:30;34.58;;;17.42;;
24547;SDS011;12713;51.624;4.924;2023-02-20T10:21:04;36.30;;;15.68;;
24547;SDS011;12713;51.624;4.924;2023-02-20T10:26:06;30.10;;;15.82;;
24547;SDS011;12713;51.624;4.924;2023-02-20T10:28:33;39.38;;;13.38;;
24547;SDS011;12713;51.624;4.924;2023-02-20T10:31:06;38.55;;;14.40;;
24547;SDS011;12713;51.624;4.924;2023-02-20T10:36:11;26.55;;;12.80;;
24547;SDS011;12713;51.624;4.924;2023-02-20T10:38:44;22.70;;;12.45;;
24547;SDS011;12713;51.624;4.924;2023-02-20T10:43:41;24.88;;;12.98;;
24547;SDS011;12713;51.624;4.924;2023-02-20T10:46:13;28.83;;;13.80;;
24547;SDS011;12713;51.624;4.924;2023-02-20T10:54:06;22.95;;;12.05;;
24547;SDS011;12713;51.624;4.924;2023-02-20T10:56:35;27.77;;;11.23;;
24547;SDS011;12713;51.624;4.924;2023-02-20T11:01:32;24.90;;;9.23;;
24547;SDS011;12713;51.624;4.924;2023-02-20T11:04:10;23.20;;;8.52;;
24547;SDS011;12713;51.624;4.924;2023-02-20T11:09:32;21.77;;;8.95;;
24547;SDS011;12713;51.624;4.924;2023-02-20T11:11:58;22.08;;;8.55;;
24547;SDS011;12713;51.624;4.924;2023-02-20T11:16:57;23.85;;;9.07;;
24547;SDS011;12713;51.624;4.924;2023-02-20T11:19:27;23.52;;;8.48;;
24547;SDS011;12713;51.624;4.924;2023-02-20T11:21:55;27.05;;;9.15;;
24547;SDS011;12713;51.624;4.924;2023-02-20T11:26:54;20.85;;;8.35;;
24547;SDS011;12713;51.624;4.924;2023-02-20T11:29:21;28.58;;;9.00;;
24547;SDS011;12713;51.624;4.924;2023-02-20T11:31:48;19.35;;;7.97;;
24547;SDS011;12713;51.624;4.924;2023-02-20T11:34:19;24.52;;;8.15;;
24547;SDS011;12713;51.624;4.924;2023-02-20T11:36:50;18.02;;;7.82;;
24547;SDS011;12713;51.624;4.924;2023-02-20T11:39:26;25.38;;;7.80;;
24547;SDS011;12713;51.624;4.924;2023-02-20T11:42:03;18.63;;;7.55;;
24547;SDS011;12713;51.624;4.924;2023-02-20T11:44:30;18.63;;;7.68;;
24547;SDS011;12713;51.624;4.924;2023-02-20T11:47:10;17.80;;;7.05;;
24547;SDS011;12713;51.624;4.924;2023-02-20T11:49:39;19.15;;;7.28;;
24547;SDS011;12713;51.624;4.924;2023-02-20T11:52:14;17.45;;;7.15;;
24547;SDS011;12713;51.624;4.924;2023-02-20T11:54:41;16.75;;;6.55;;
24547;SDS011;12713;51.624;4.924;2023-02-20T11:57:26;17.75;;;6.75;;
24547;SDS011;12713;51.624;4.924;2023-02-20T12:00:07;17.13;;;6.38;;
24547;SDS011;12713;51.624;4.924;2023-02-20T12:02:33;12.90;;;6.75;;
24547;SDS011;12713;51.624;4.924;2023-02-20T12:09:52;18.90;;;7.65;;
24547;SDS011;12713;51.624;4.924;2023-02-20T12:12:19;14.68;;;7.03;;
24547;SDS011;12713;51.624;4.924;2023-02-20T12:14:49;14.35;;;9.18;;
24547;SDS011;12713;51.624;4.924;2023-02-20T12:17:21;16.95;;;10.00;;
24547;SDS011;12713;51.624;4.924;2023-02-20T12:20:02;21.45;;;12.13;;
24547;SDS011;12713;51.624;4.924;2023-02-20T12:27:47;31.40;;;18.17;;
24547;SDS011;12713;51.624;4.924;2023-02-20T12:35:44;38.03;;;24.27;;
24547;SDS011;12713;51.624;4.924;2023-02-20T12:53:36;26.00;;;18.20;;
24547;SDS011;12713;51.624;4.924;2023-02-20T12:58:44;28.10;;;16.77;;
24547;SDS011;12713;51.624;4.924;2023-02-20T13:01:12;29.30;;;17.65;;
24547;SDS011;12713;51.624;4.924;2023-02-20T13:06:04;24.55;;;15.95;;
24547;SDS011;12713;51.624;4.924;2023-02-20T13:08:35;22.40;;;14.48;;
24547;SDS011;12713;51.624;4.924;2023-02-20T13:11:08;28.35;;;16.42;;
24547;SDS011;12713;51.624;4.924;2023-02-20T13:16:16;27.90;;;15.15;;
24547;SDS011;12713;51.624;4.924;2023-02-20T13:21:14;24.65;;;15.30;;
24547;SDS011;12713;51.624;4.924;2023-02-20T13:23:41;21.10;;;14.13;;
24547;SDS011;12713;51.624;4.924;2023-02-20T13:26:42;24.23;;;14.65;;
24547;SDS011;12713;51.624;4.924;2023-02-20T13:46:59;29.88;;;18.00;;
24547;SDS011;12713;51.624;4.924;2023-02-20T13:54:56;27.52;;;20.40;;
24547;SDS011;12713;51.624;4.924;2023-02-20T13:57:23;29.52;;;19.48;;
24547;SDS011;12713;51.624;4.924;2023-02-20T13:59:54;29.15;;;19.83;;
24547;SDS011;12713;51.624;4.924;2023-02-20T14:02:23;36.67;;;20.25;;
24547;SDS011;12713;51.624;4.924;2023-02-20T14:05:01;27.95;;;18.75;;
24547;SDS011;12713;51.624;4.924;2023-02-20T14:07:35;30.30;;;18.45;;
24547;SDS011;12713;51.624;4.924;2023-02-20T14:10:07;31.00;;;19.52;;
24547;SDS011;12713;51.624;4.924;2023-02-20T14:12:39;23.85;;;16.80;;
24547;SDS011;12713;51.624;4.924;2023-02-20T14:15:05;25.98;;;16.38;;
24547;SDS011;12713;51.624;4.924;2023-02-20T14:17:31;26.92;;;16.58;;
24547;SDS011;12713;51.624;4.924;2023-02-20T14:19:59;32.40;;;18.27;;
24547;SDS011;12713;51.624;4.924;2023-02-20T14:22:30;29.92;;;17.17;;
24547;SDS011;12713;51.624;4.924;2023-02-20T14:27:29;30.95;;;15.30;;
24547;SDS011;12713;51.624;4.924;2023-02-20T14:30:03;29.27;;;16.95;;
24547;SDS011;12713;51.624;4.924;2023-02-20T14:32:29;30.08;;;17.27;;
24547;SDS011;12713;51.624;4.924;2023-02-20T14:34:57;26.58;;;16.05;;
24547;SDS011;12713;51.624;4.924;2023-02-20T14:37:29;21.70;;;15.02;;
24547;SDS011;12713;51.624;4.924;2023-02-20T14:42:27;25.42;;;14.68;;
24547;SDS011;12713;51.624;4.924;2023-02-20T14:45:02;29.98;;;15.60;;
24547;SDS011;12713;51.624;4.924;2023-02-20T14:47:29;26.77;;;15.38;;
24547;SDS011;12713;51.624;4.924;2023-02-20T14:52:41;27.05;;;17.05;;
24547;SDS011;12713;51.624;4.924;2023-02-20T14:55:14;30.15;;;18.05;;
24547;SDS011;12713;51.624;4.924;2023-02-20T15:02:41;31.33;;;18.80;;
24547;SDS011;12713;51.624;4.924;2023-02-20T15:05:09;33.03;;;20.50;;
24547;SDS011;12713;51.624;4.924;2023-02-20T15:07:37;34.22;;;21.35;;
24547;SDS011;12713;51.624;4.924;2023-02-20T15:10:05;29.55;;;21.13;;
24547;SDS011;12713;51.624;4.924;2023-02-20T15:12:36;29.88;;;19.65;;
24547;SDS011;12713;51.624;4.924;2023-02-20T15:15:06;31.08;;;19.35;;
24547;SDS011;12713;51.624;4.924;2023-02-20T15:17:34;26.40;;;17.00;;
24547;SDS011;12713;51.624;4.924;2023-02-20T15:20:14;27.75;;;16.58;;
24547;SDS011;12713;51.624;4.924;2023-02-20T15:22:40;29.13;;;15.93;;
24547;SDS011;12713;51.624;4.924;2023-02-20T15:25:40;25.05;;;14.50;;
24547;SDS011;12713;51.624;4.924;2023-02-20T15:28:07;24.00;;;13.85;;
24547;SDS011;12713;51.624;4.924;2023-02-20T15:30:35;21.17;;;13.27;;
24547;SDS011;12713;51.624;4.924;2023-02-20T15:33:20;23.63;;;12.98;;
24547;SDS011;12713;51.624;4.924;2023-02-20T15:35:46;21.13;;;12.80;;
24547;SDS011;12713;51.624;4.924;2023-02-20T15:38:14;20.85;;;10.50;;
24547;SDS011;12713;51.624;4.924;2023-02-20T15:40:40;22.65;;;11.65;;
24547;SDS011;12713;51.624;4.924;2023-02-20T15:43:10;24.67;;;11.95;;
24547;SDS011;12713;51.624;4.924;2023-02-20T15:45:37;17.98;;;10.13;;
24547;SDS011;12713;51.624;4.924;2023-02-20T15:48:03;22.75;;;10.57;;
24547;SDS011;12713;51.624;4.924;2023-02-20T15:50:29;22.73;;;9.98;;
24547;SDS011;12713;51.624;4.924;2023-02-20T15:52:55;22.98;;;10.18;;
24547;SDS011;12713;51.624;4.924;2023-02-20T15:55:22;16.60;;;8.45;;
24547;SDS011;12713;51.624;4.924;2023-02-20T15:57:50;17.13;;;7.97;;
24547;SDS011;12713;51.624;4.924;2023-02-20T16:00:29;15.73;;;8.30;;
24547;SDS011;12713;51.624;4.924;2023-02-20T16:02:57;19.58;;;8.63;;
24547;SDS011;12713;51.624;4.924;2023-02-20T16:05:23;15.73;;;8.15;;
24547;SDS011;12713;51.624;4.924;2023-02-20T16:07:49;17.48;;;8.98;;
24547;SDS011;12713;51.624;4.924;2023-02-20T16:10:16;14.38;;;8.63;;
24547;SDS011;12713;51.624;4.924;2023-02-20T16:12:43;16.50;;;9.18;;
24547;SDS011;12713;51.624;4.924;2023-02-20T16:15:18;15.73;;;8.45;;
24547;SDS011;12713;51.624;4.924;2023-02-20T16:17:49;11.68;;;7.97;;
24547;SDS011;12713;51.624;4.924;2023-02-20T16:20:16;17.85;;;8.48;;
24547;SDS011;12713;51.624;4.924;2023-02-20T16:22:42;12.52;;;7.90;;
24547;SDS011;12713;51.624;4.924;2023-02-20T16:25:09;16.98;;;8.55;;
24547;SDS011;12713;51.624;4.924;2023-02-20T16:27:36;15.38;;;8.07;;
24547;SDS011;12713;51.624;4.924;2023-02-20T16:30:02;10.38;;;7.82;;
24547;SDS011;12713;51.624;4.924;2023-02-20T16:32:28;16.33;;;8.38;;
24547;SDS011;12713;51.624;4.924;2023-02-20T16:34:56;14.80;;;8.20;;
24547;SDS011;12713;51.624;4.924;2023-02-20T16:37:22;15.10;;;7.70;;
24547;SDS011;12713;51.624;4.924;2023-02-20T16:39:49;15.23;;;8.90;;
24547;SDS011;12713;51.624;4.924;2023-02-20T16:42:19;14.50;;;8.60;;
24547;SDS011;12713;51.624;4.924;2023-02-20T16:44:46;12.95;;;8.63;;
24547;SDS011;12713;51.624;4.924;2023-02-20T16:47:13;17.02;;;8.77;;
24547;SDS011;12713;51.624;4.924;2023-02-20T16:49:40;15.23;;;8.77;;
24547;SDS011;12713;51.624;4.924;2023-02-20T16:54:45;15.98;;;8.73;;
24547;SDS011;12713;51.624;4.924;2023-02-20T16:57:11;16.42;;;9.55;;